Terminal Aerodrome Forecast
Issued by NWS

Home | Current Version | Previous Version | Text Only | Print | Product List | Glossary On
Versions: 1 2 3 4 5 6 7 8 9 10 11 12 13 14 15 16 17 18 19 20
000
FTUS41 KBTV 231200 AAA
TAFMPV
TAF AMD
KMPV 231239Z 2313/2412 VRB03KT P6SM BKN030
      TEMPO 2313/2315 BKN005
     FM231800 07005KT P6SM BKN040
     FM240000 00000KT P6SM SCT040
     FM240600 00000KT 1/4SM FG VV001=

USA.gov is the U.S. government's official web portal to all federal, state and local government web resources and services.